createdAt,value
2017-09-10T00:00:02.073Z,15.28
2017-09-10T00:05:04.037Z,15.23
2017-09-10T00:10:06.044Z,15.21
2017-09-10T00:15:07.998Z,15.18
2017-09-10T00:20:10.137Z,15.16
2017-09-10T00:25:12.065Z,15.16
2017-09-10T00:30:15.028Z,15.10
2017-09-10T00:35:16.978Z,15.10
2017-09-10T00:40:18.946Z,15.08
2017-09-10T00:45:20.902Z,15.07
2017-09-10T00:50:22.945Z,14.99
2017-09-10T00:55:24.896Z,14.94
2017-09-10T01:00:26.884Z,14.96
2017-09-10T01:05:28.882Z,14.92
2017-09-10T01:10:30.916Z,14.90
2017-09-10T01:15:32.981Z,14.87
2017-09-10T01:20:35.071Z,14.81
2017-09-10T01:25:37.110Z,14.74
2017-09-10T01:30:39.540Z,14.70
2017-09-10T01:35:41.944Z,14.64
2017-09-10T01:40:44.776Z,14.60
2017-09-10T01:45:46.978Z,14.54
2017-09-10T01:50:48.966Z,14.50
2017-09-10T01:55:50.926Z,14.47
2017-09-10T02:00:53.338Z,14.45
2017-09-10T02:05:55.314Z,14.41
2017-09-10T02:10:57.289Z,14.38
2017-09-10T02:15:59.303Z,14.33
2017-09-10T02:21:01.330Z,14.28
2017-09-10T02:26:03.302Z,14.26
2017-09-10T02:31:05.327Z,14.22
2017-09-10T02:36:07.307Z,14.21
2017-09-10T02:41:19.188Z,14.22
2017-09-10T02:46:21.218Z,14.22
2017-09-10T02:51:23.164Z,14.25
2017-09-10T02:56:31.438Z,14.24
2017-09-10T03:01:39.695Z,14.19
2017-09-10T03:06:48.663Z,14.22
2017-09-10T03:11:52.164Z,14.27
2017-09-10T03:16:55.911Z,14.30
2017-09-10T03:22:03.515Z,14.31
2017-09-10T03:27:09.165Z,14.28
2017-09-10T03:32:13.282Z,14.29
2017-09-10T03:37:15.895Z,14.22
2017-09-10T03:42:24.041Z,14.18
2017-09-10T03:47:27.108Z,14.22
2017-09-10T03:52:29.691Z,14.22
2017-09-10T03:57:33.373Z,14.16
2017-09-10T04:02:36.461Z,14.20
2017-09-10T04:07:39.824Z,14.22
2017-09-10T04:12:42.957Z,14.23
2017-09-10T04:17:46.287Z,14.24
2017-09-10T04:22:49.066Z,14.22
2017-09-10T04:27:52.101Z,14.22
2017-09-10T04:32:54.938Z,14.23
2017-09-10T04:37:57.780Z,14.19
2017-09-10T04:43:00.228Z,14.23
2017-09-10T04:48:03.426Z,14.24
2017-09-10T04:53:06.388Z,14.24
2017-09-10T04:58:13.808Z,14.21
2017-09-10T05:03:19.785Z,14.26
2017-09-10T05:08:26.898Z,14.30
2017-09-10T05:13:30.817Z,14.32
2017-09-10T05:18:34.771Z,14.33
2017-09-10T05:23:43.349Z,14.38
2017-09-10T05:28:48.237Z,14.38
2017-09-10T05:33:55.395Z,14.41
2017-09-10T05:38:59.257Z,14.46
2017-09-10T05:44:06.141Z,14.48
2017-09-10T05:49:12.950Z,14.47
2017-09-10T05:54:17.381Z,14.52
2017-09-10T05:59:26.730Z,14.58
2017-09-10T06:04:31.824Z,14.71
2017-09-10T06:09:39.951Z,14.81
2017-09-10T06:14:44.227Z,15.09
2017-09-10T06:19:51.947Z,15.33
2017-09-10T06:24:55.109Z,15.37
2017-09-10T06:30:04.200Z,15.58
2017-09-10T06:35:12.708Z,15.86
2017-09-10T06:40:18.006Z,15.90
2017-09-10T06:45:21.069Z,16.03
2017-09-10T06:50:23.832Z,16.21
2017-09-10T06:55:26.693Z,16.42
2017-09-10T07:00:29.123Z,16.54
2017-09-10T07:05:31.701Z,16.65
2017-09-10T07:10:34.299Z,16.73
2017-09-10T07:15:37.078Z,16.87
2017-09-10T07:20:39.530Z,17.03
2017-09-10T07:25:42.896Z,17.14
2017-09-10T07:30:45.425Z,17.16
2017-09-10T07:35:47.748Z,17.38
2017-09-10T07:40:49.742Z,17.47
2017-09-10T07:45:51.708Z,17.66
2017-09-10T07:50:53.682Z,18.09
2017-09-10T07:55:55.677Z,18.43
2017-09-10T08:00:57.650Z,18.83
2017-09-10T08:05:59.860Z,19.29
2017-09-10T08:11:01.818Z,19.34
2017-09-10T08:16:04.366Z,19.31
2017-09-10T08:21:06.308Z,19.36
2017-09-10T08:26:08.418Z,19.21
2017-09-10T08:31:10.432Z,19.09
2017-09-10T08:36:12.407Z,19.03
2017-09-10T08:41:14.406Z,19.13
2017-09-10T08:46:16.378Z,19.50
2017-09-10T08:51:18.325Z,19.95
2017-09-10T08:56:20.523Z,20.04
2017-09-10T09:01:22.481Z,19.70
2017-09-10T09:06:24.421Z,19.64
2017-09-10T09:11:26.366Z,19.52
2017-09-10T09:16:28.457Z,19.60
2017-09-10T09:21:30.484Z,19.88
2017-09-10T09:26:40.076Z,20.22
2017-09-10T09:31:44.026Z,20.34
2017-09-10T09:36:46.235Z,20.47
2017-09-10T09:41:48.335Z,20.37
2017-09-10T09:46:53.352Z,20.16
2017-09-10T09:51:55.595Z,20.12
2017-09-10T09:56:58.021Z,20.28
2017-09-10T10:02:00.371Z,20.40
2017-09-10T10:07:02.777Z,20.47
2017-09-10T10:12:04.736Z,20.52
2017-09-10T10:17:06.708Z,20.84
2017-09-10T10:22:08.813Z,21.21
2017-09-10T10:27:12.490Z,21.58
2017-09-10T10:32:20.596Z,21.82
2017-09-10T10:37:23.655Z,22.05
2017-09-10T10:42:26.839Z,21.99
2017-09-10T10:47:30.675Z,22.13
2017-09-10T10:52:33.634Z,22.43
2017-09-10T10:57:36.666Z,22.80
2017-09-10T11:02:39.253Z,22.07
2017-09-10T11:07:48.117Z,21.48
2017-09-10T11:12:50.912Z,21.98
2017-09-10T11:17:53.409Z,22.11
2017-09-10T11:23:00.440Z,22.67
2017-09-10T11:28:03.100Z,23.03
2017-09-10T11:33:06.574Z,23.25
2017-09-10T11:38:09.016Z,23.02
2017-09-10T11:43:12.965Z,22.68
2017-09-10T11:48:15.346Z,22.64
2017-09-10T11:53:17.755Z,22.81
2017-09-10T11:58:19.977Z,23.08
2017-09-10T12:03:22.297Z,23.24
2017-09-10T12:08:29.621Z,23.28
2017-09-10T12:13:33.418Z,23.63
2017-09-10T12:18:35.988Z,23.43
2017-09-10T12:23:38.401Z,23.16
2017-09-10T12:28:43.625Z,22.88
2017-09-10T12:33:46.177Z,22.88
2017-09-10T12:38:48.691Z,22.91
2017-09-10T12:43:51.035Z,22.77
2017-09-10T12:48:53.465Z,22.77
2017-09-10T12:53:55.969Z,22.64
2017-09-10T12:59:00.531Z,22.85
2017-09-10T13:04:03.180Z,23.12
2017-09-10T13:09:05.332Z,23.11
2017-09-10T13:14:07.627Z,22.94
2017-09-10T13:19:09.612Z,22.77
2017-09-10T13:24:11.627Z,22.99
2017-09-10T13:29:13.598Z,23.20
2017-09-10T13:34:15.935Z,23.31
2017-09-10T13:39:17.916Z,23.44
2017-09-10T13:44:19.907Z,23.57
2017-09-10T13:49:21.841Z,23.41
2017-09-10T13:54:23.864Z,23.68
2017-09-10T13:59:26.109Z,23.45
2017-09-10T14:04:28.039Z,23.39
2017-09-10T14:09:30.046Z,23.48
2017-09-10T14:14:32.014Z,23.76
2017-09-10T14:19:33.985Z,23.69
2017-09-10T14:24:35.967Z,23.41
2017-09-10T14:29:37.953Z,23.65
2017-09-10T14:34:39.975Z,23.78
2017-09-10T14:39:42.014Z,23.92
2017-09-10T14:44:44.445Z,23.86
2017-09-10T14:49:46.431Z,23.75
2017-09-10T14:54:48.430Z,24.07
2017-09-10T14:59:51.514Z,24.07
2017-09-10T15:04:53.464Z,23.89
2017-09-10T15:09:55.477Z,23.90
2017-09-10T15:14:57.506Z,23.64
2017-09-10T15:19:59.595Z,23.57
2017-09-10T15:25:01.554Z,23.84
2017-09-10T15:30:04.081Z,23.94
2017-09-10T15:35:06.100Z,23.65
2017-09-10T15:40:08.108Z,23.50
2017-09-10T15:45:10.109Z,23.11
2017-09-10T15:50:12.053Z,22.86
2017-09-10T15:55:15.440Z,22.85
2017-09-10T16:00:18.051Z,22.80
2017-09-10T16:05:20.476Z,22.74
2017-09-10T16:10:23.487Z,22.73
2017-09-10T16:15:25.415Z,22.90
2017-09-10T16:20:27.363Z,22.71
2017-09-10T16:25:29.349Z,22.48
2017-09-10T16:30:31.358Z,22.35
2017-09-10T16:35:33.628Z,22.19
2017-09-10T16:40:35.622Z,22.11
2017-09-10T16:45:37.611Z,22.11
2017-09-10T16:50:39.910Z,21.92
2017-09-10T16:55:42.237Z,21.85
2017-09-10T17:00:44.305Z,21.71
2017-09-10T17:05:47.695Z,21.55
2017-09-10T17:10:49.650Z,21.59
2017-09-10T17:15:51.679Z,21.50
2017-09-10T17:20:53.725Z,21.31
2017-09-10T17:25:55.704Z,21.13
2017-09-10T17:30:59.505Z,21.07
2017-09-10T17:36:10.082Z,21.10
2017-09-10T17:41:12.658Z,21.11
2017-09-10T17:46:15.038Z,20.86
2017-09-10T17:51:17.787Z,20.72
2017-09-10T17:56:22.027Z,20.54
2017-09-10T18:01:24.378Z,20.44
2017-09-10T18:06:33.402Z,20.40
2017-09-10T18:11:40.542Z,20.54
2017-09-10T18:16:42.928Z,20.55
2017-09-10T18:21:45.315Z,20.41
2017-09-10T18:26:48.662Z,20.24
2017-09-10T18:31:51.889Z,20.08
2017-09-10T18:36:55.336Z,19.98
2017-09-10T18:41:58.146Z,19.92
2017-09-10T18:47:00.163Z,19.74
2017-09-10T18:52:02.238Z,19.60
2017-09-10T18:57:04.285Z,19.47
2017-09-10T19:02:06.289Z,19.39
2017-09-10T19:07:08.296Z,19.27
2017-09-10T19:12:10.324Z,19.26
2017-09-10T19:17:12.320Z,19.08
2017-09-10T19:22:14.321Z,19.02
2017-09-10T19:27:16.594Z,18.81
2017-09-10T19:32:20.917Z,18.74
2017-09-10T19:37:24.371Z,18.69
2017-09-10T19:42:28.351Z,18.65
2017-09-10T19:47:31.382Z,18.63
2017-09-10T19:52:35.706Z,18.58
2017-09-10T19:57:37.895Z,18.51
2017-09-10T20:02:40.171Z,18.38
2017-09-10T20:07:57.450Z,18.34
2017-09-10T20:13:00.653Z,18.27
2017-09-10T20:18:03.419Z,18.22
2017-09-10T20:23:06.536Z,18.30
2017-09-10T20:28:09.830Z,18.17
2017-09-10T20:33:13.621Z,18.28
2017-09-10T20:38:16.769Z,18.17
2017-09-10T20:43:20.059Z,18.14
2017-09-10T20:48:23.047Z,18.14
2017-09-10T20:53:26.418Z,18.25
2017-09-10T20:58:31.675Z,18.32
2017-09-10T21:03:35.417Z,18.34
2017-09-10T21:08:38.319Z,18.42
2017-09-10T21:13:40.918Z,18.38
2017-09-10T21:23:51.969Z,18.38
2017-09-10T21:28:54.611Z,18.30
2017-09-10T21:33:56.983Z,18.39
2017-09-10T21:38:59.535Z,18.44
2017-09-10T21:44:03.579Z,18.48
2017-09-10T21:49:05.621Z,18.45
2017-09-10T21:54:07.599Z,18.50
2017-09-10T21:59:09.859Z,18.52
2017-09-10T22:04:11.928Z,18.42
2017-09-10T22:09:13.919Z,18.25
2017-09-10T22:14:15.908Z,18.17
2017-09-10T22:19:17.939Z,18.14
2017-09-10T22:24:20.046Z,18.04
2017-09-10T22:29:22.126Z,18.09
2017-09-10T22:34:24.346Z,18.07
2017-09-10T22:39:26.291Z,18.04
2017-09-10T22:44:28.246Z,18.08
2017-09-10T22:49:30.222Z,17.98
2017-09-10T22:54:32.499Z,18.01
2017-09-10T22:59:34.674Z,17.99
2017-09-10T23:04:36.775Z,17.96
2017-09-10T23:09:38.794Z,17.97
2017-09-10T23:14:41.105Z,17.91
2017-09-10T23:19:43.268Z,17.93
2017-09-10T23:24:45.401Z,17.88
2017-09-10T23:29:47.477Z,17.82
2017-09-10T23:34:49.581Z,17.77
2017-09-10T23:39:51.566Z,17.80
2017-09-10T23:44:53.831Z,17.78
2017-09-10T23:49:55.847Z,17.53
2017-09-10T23:54:57.934Z,17.85
2017-09-10T23:59:59.915Z,17.81
